Time;durP1;ratioP1;P1;durP2;ratioP2;P2;SDS_P1;SDS_P2;PMS_P1;PMS_P2;Temp;Humidity;BMP_temperature;BMP_pressure;BME280_temperature;BME280_humidity;BME280_pressure;Samples;Min_cycle;Max_cycle;Signal;HPM_P1;HPM_P2
2022/07/24 00:02:52;;;;;;;7.33;6.73;;;24.30;38.70;;;;;;10470089;28;20228;-73
2022/07/24 00:07:56;;;;;;;8.10;7.40;;;24.20;39.10;;;;;;10464872;28;20224;-73
2022/07/24 00:12:59;;;;;;;9.10;7.03;;;24.10;39.00;;;;;;10461724;28;20221;-73
2022/07/24 00:18:04;;;;;;;7.47;6.63;;;24.10;39.10;;;;;;10462253;28;20229;-73
2022/07/24 00:23:07;;;;;;;6.83;6.13;;;24.00;39.50;;;;;;10454755;28;20236;-72
2022/07/24 00:28:10;;;;;;;6.00;5.53;;;24.00;39.20;;;;;;10463822;28;20708;-73
2022/07/24 00:33:15;;;;;;;8.03;7.30;;;23.90;39.10;;;;;;10459391;28;20735;-72
2022/07/24 00:38:18;;;;;;;7.00;6.30;;;23.90;39.90;;;;;;10460995;28;20232;-73
2022/07/24 00:43:21;;;;;;;8.17;6.83;;;23.80;39.20;;;;;;10467231;28;20239;-73
2022/07/24 00:48:26;;;;;;;6.53;6.03;;;23.80;39.40;;;;;;10459510;28;20243;-72
2022/07/24 00:53:30;;;;;;;8.07;6.10;;;23.70;39.80;;;;;;10463744;28;20252;-72
2022/07/24 00:58:34;;;;;;;6.83;6.23;;;23.60;39.70;;;;;;10461124;28;20580;-72
2022/07/24 01:03:38;;;;;;;7.67;6.73;;;23.60;39.70;;;;;;10459601;28;20232;-73
2022/07/24 01:08:44;;;;;;;8.03;7.23;;;23.50;39.60;;;;;;10459037;28;20228;-72
2022/07/24 01:13:48;;;;;;;7.33;6.67;;;23.60;39.70;;;;;;10459344;28;20240;-72
2022/07/24 01:18:52;;;;;;;8.63;7.40;;;23.50;39.60;;;;;;10465072;28;20231;-72
2022/07/24 01:23:57;;;;;;;7.10;6.57;;;23.40;39.50;;;;;;10462595;28;20240;-72
2022/07/24 01:29:00;;;;;;;6.77;6.23;;;23.40;39.50;;;;;;10458157;28;20239;-72
2022/07/24 01:34:05;;;;;;;6.97;6.37;;;23.30;39.40;;;;;;10458091;28;20221;-72
2022/07/24 01:39:09;;;;;;;7.60;7.00;;;23.20;39.30;;;;;;10457399;28;20228;-72
2022/07/24 01:44:12;;;;;;;7.40;6.70;;;23.20;39.30;;;;;;10456356;28;20248;-72
2022/07/24 01:49:16;;;;;;;9.43;7.00;;;23.20;39.30;;;;;;10461265;28;20216;-72
2022/07/24 01:54:21;;;;;;;7.03;6.43;;;23.20;39.30;;;;;;10458540;28;20239;-72
2022/07/24 01:59:24;;;;;;;8.33;7.63;;;23.20;39.30;;;;;;10457608;28;20230;-73
2022/07/24 02:04:28;;;;;;;7.97;7.27;;;23.10;39.20;;;;;;10457236;28;20229;-72
2022/07/24 02:09:33;;;;;;;8.40;7.63;;;23.10;39.20;;;;;;10462100;28;20231;-72
2022/07/24 02:14:36;;;;;;;7.77;7.17;;;23.00;39.10;;;;;;10456370;28;20224;-72
2022/07/24 02:19:39;;;;;;;7.70;7.00;;;22.80;39.00;;;;;;10457903;28;20216;-72
2022/07/24 02:24:43;;;;;;;7.83;7.10;;;22.70;38.90;;;;;;10454079;28;20893;-72
2022/07/24 02:29:47;;;;;;;6.80;6.30;;;22.60;39.70;;;;;;10458165;28;20235;-72
2022/07/24 02:34:50;;;;;;;8.70;7.73;;;22.60;39.60;;;;;;10459879;28;20248;-72
2022/07/24 02:39:55;;;;;;;8.53;7.47;;;22.60;39.40;;;;;;10454047;28;20224;-72
2022/07/24 02:44:58;;;;;;;8.57;7.77;;;22.50;39.60;;;;;;10457401;28;20228;-72
2022/07/24 02:50:01;;;;;;;7.40;6.80;;;22.40;39.40;;;;;;10457849;28;20235;-72
2022/07/24 02:55:07;;;;;;;8.13;7.43;;;22.40;39.80;;;;;;10456003;28;20228;-72
2022/07/24 03:00:13;;;;;;;7.07;6.57;;;22.40;39.70;;;;;;10454563;28;20228;-72
2022/07/24 03:05:17;;;;;;;6.87;6.27;;;22.30;39.60;;;;;;10454355;28;20231;-73
2022/07/24 03:10:22;;;;;;;7.80;7.20;;;22.30;39.50;;;;;;10456401;28;20270;-72
2022/07/24 03:15:25;;;;;;;7.87;7.27;;;22.30;39.60;;;;;;10454672;28;20798;-72
2022/07/24 03:20:29;;;;;;;7.60;6.90;;;22.30;39.50;;;;;;10452399;28;20239;-72
2022/07/24 03:25:34;;;;;;;7.77;7.00;;;22.30;39.40;;;;;;10451816;28;20690;-72
2022/07/24 03:30:37;;;;;;;7.87;7.17;;;22.30;39.80;;;;;;10454373;28;20896;-72
2022/07/24 03:35:40;;;;;;;8.30;7.53;;;22.30;39.60;;;;;;10452700;28;20887;-72
2022/07/24 03:40:45;;;;;;;8.47;7.67;;;22.20;39.20;;;;;;10455327;28;20251;-72
2022/07/24 03:45:48;;;;;;;7.87;7.20;;;22.20;39.30;;;;;;10456988;28;20252;-72
2022/07/24 03:50:51;;;;;;;6.80;6.30;;;22.10;39.10;;;;;;10459390;28;20239;-72
2022/07/24 03:55:57;;;;;;;8.20;7.60;;;22.00;39.30;;;;;;10449749;28;20225;-72
2022/07/24 04:01:00;;;;;;;9.33;8.43;;;21.90;39.90;;;;;;10453981;28;20225;-72
2022/07/24 04:06:04;;;;;;;8.97;8.17;;;21.90;39.90;;;;;;10456960;28;20228;-72
2022/07/24 04:11:09;;;;;;;9.30;8.13;;;21.80;40.00;;;;;;10453946;28;20231;-72
2022/07/24 04:16:12;;;;;;;10.13;8.97;;;21.70;40.50;;;;;;10456080;28;20231;-72
2022/07/24 04:21:16;;;;;;;9.43;8.43;;;21.70;40.50;;;;;;10454583;28;20221;-72
2022/07/24 04:26:20;;;;;;;9.83;8.57;;;21.60;40.50;;;;;;10454964;28;20237;-72
2022/07/24 04:31:23;;;;;;;8.57;7.77;;;21.50;41.10;;;;;;10452038;28;20232;-72
2022/07/24 04:36:30;;;;;;;9.20;7.10;;;21.40;41.00;;;;;;10458761;28;20232;-72
2022/07/24 04:41:35;;;;;;;8.37;7.57;;;21.50;41.20;;;;;;10468206;28;20781;-75
2022/07/24 04:46:38;;;;;;;8.87;7.97;;;21.50;41.60;;;;;;10469558;28;20262;-76
2022/07/24 04:51:41;;;;;;;9.83;8.37;;;21.60;41.10;;;;;;10474465;28;20221;-76
2022/07/24 04:56:46;;;;;;;11.77;8.77;;;21.60;41.20;;;;;;10476731;28;20270;-76
2022/07/24 05:01:49;;;;;;;10.33;8.80;;;21.60;41.70;;;;;;10476242;28;20227;-76
2022/07/24 05:06:52;;;;;;;8.97;7.97;;;21.60;41.50;;;;;;10475564;28;20224;-76
2022/07/24 05:11:57;;;;;;;9.33;8.53;;;21.60;41.60;;;;;;10475219;28;20213;-76
2022/07/24 05:17:00;;;;;;;10.17;8.30;;;21.70;42.50;;;;;;10475203;28;20612;-76
2022/07/24 05:22:03;;;;;;;9.37;8.50;;;21.70;41.90;;;;;;10472614;28;20220;-76
2022/07/24 05:27:08;;;;;;;8.97;8.17;;;21.80;42.10;;;;;;10471099;28;20887;-76
2022/07/24 05:32:14;;;;;;;10.30;9.17;;;21.80;42.50;;;;;;10473195;28;20239;-76
2022/07/24 05:37:17;;;;;;;9.60;8.60;;;21.90;42.30;;;;;;10472452;28;20228;-76
2022/07/24 05:42:22;;;;;;;10.40;9.50;;;21.90;42.50;;;;;;10472507;28;20228;-76
2022/07/24 05:47:25;;;;;;;11.50;10.40;;;22.00;43.20;;;;;;10474365;28;20232;-76
2022/07/24 05:52:28;;;;;;;12.27;11.17;;;22.10;42.90;;;;;;10473983;28;20240;-76
2022/07/24 05:57:33;;;;;;;12.90;11.80;;;22.20;42.90;;;;;;10471174;28;20232;-75
2022/07/24 06:02:37;;;;;;;12.87;11.67;;;22.30;43.30;;;;;;10472826;28;20672;-76
2022/07/24 06:07:40;;;;;;;12.80;11.80;;;22.30;43.00;;;;;;10466428;28;20268;-76
2022/07/24 06:12:45;;;;;;;12.43;11.37;;;22.50;43.30;;;;;;10478492;28;20228;-77
2022/07/24 06:17:48;;;;;;;11.93;10.97;;;22.60;43.40;;;;;;10466458;28;20217;-77
2022/07/24 06:22:51;;;;;;;12.93;11.93;;;22.70;43.00;;;;;;10468503;28;20266;-77
2022/07/24 06:27:57;;;;;;;12.83;11.63;;;22.90;43.40;;;;;;10471710;28;20315;-76
2022/07/24 06:33:01;;;;;;;12.10;10.90;;;23.00;43.80;;;;;;10465949;28;20712;-77
2022/07/24 06:38:04;;;;;;;13.30;12.03;;;23.10;43.60;;;;;;10467004;28;20242;-76
2022/07/24 06:43:08;;;;;;;12.73;11.70;;;23.30;43.70;;;;;;10463478;28;20221;-73
2022/07/24 06:48:13;;;;;;;12.70;11.70;;;23.40;44.20;;;;;;10458637;28;20259;-72
2022/07/24 06:53:16;;;;;;;11.87;10.97;;;23.50;44.10;;;;;;10455996;28;20220;-72
2022/07/24 06:58:21;;;;;;;12.87;11.87;;;23.70;44.30;;;;;;10454726;28;20715;-72
2022/07/24 07:03:25;;;;;;;13.30;12.27;;;23.90;45.70;;;;;;10464759;28;20247;-71
2022/07/24 07:08:28;;;;;;;13.40;12.30;;;24.10;44.90;;;;;;10461420;28;20224;-72
2022/07/24 07:13:32;;;;;;;12.63;11.67;;;24.30;44.50;;;;;;10463343;28;20228;-72
2022/07/24 07:18:36;;;;;;;12.60;11.67;;;24.50;44.80;;;;;;10457043;28;20239;-72
2022/07/24 07:23:42;;;;;;;12.83;11.83;;;24.60;44.50;;;;;;10458907;28;20282;-72
2022/07/24 07:28:53;;;;;;;14.13;12.93;;;24.70;44.20;;;;;;10452011;28;20237;-72
2022/07/24 07:33:57;;;;;;;12.80;11.53;;;24.90;44.10;;;;;;10457523;28;20216;-72
2022/07/24 07:39:01;;;;;;;11.90;11.00;;;25.10;43.70;;;;;;10455573;28;20319;-72
2022/07/24 07:44:06;;;;;;;11.17;10.37;;;25.30;43.40;;;;;;10447964;28;20232;-72
2022/07/24 07:49:10;;;;;;;11.73;10.23;;;25.50;43.10;;;;;;10453674;28;20827;-73
2022/07/24 07:54:13;;;;;;;11.47;9.90;;;25.70;43.10;;;;;;10460140;28;20741;-73
2022/07/24 07:59:18;;;;;;;8.93;8.13;;;26.00;42.70;;;;;;10456340;28;20225;-72
2022/07/24 08:04:21;;;;;;;9.43;8.63;;;26.20;41.70;;;;;;10443991;28;20252;-73
2022/07/24 08:09:24;;;;;;;9.47;8.77;;;26.40;41.80;;;;;;10446362;28;20235;-75
2022/07/24 08:14:29;;;;;;;14.33;8.87;;;26.70;42.00;;;;;;10456474;28;20774;-76
2022/07/24 08:19:32;;;;;;;9.27;8.47;;;26.90;40.50;;;;;;10460187;28;20235;-75
2022/07/24 08:24:35;;;;;;;9.67;8.90;;;27.20;40.40;;;;;;10444715;28;20232;-76
2022/07/24 08:29:40;;;;;;;8.27;7.67;;;27.50;40.20;;;;;;10456534;28;20224;-78
2022/07/24 08:34:43;;;;;;;7.80;7.20;;;27.80;38.90;;;;;;10449494;28;20233;-76
2022/07/24 08:39:46;;;;;;;7.97;7.37;;;28.00;38.10;;;;;;10459621;28;20227;-76
2022/07/24 08:44:51;;;;;;;6.93;6.43;;;28.20;37.70;;;;;;10468262;28;20232;-76
2022/07/24 08:49:56;;;;;;;7.13;6.63;;;28.50;36.30;;;;;;10467115;28;20228;-76
2022/07/24 08:54:59;;;;;;;10.87;6.90;;;28.70;36.60;;;;;;10467602;28;20243;-75
2022/07/24 09:00:05;;;;;;;7.53;7.03;;;28.90;36.20;;;;;;10466147;28;20228;-75
2022/07/24 09:05:09;;;;;;;6.77;6.27;;;29.10;35.20;;;;;;10467808;28;20606;-76
2022/07/24 09:10:15;;;;;;;6.73;6.27;;;29.30;34.20;;;;;;10465039;28;20324;-75
2022/07/24 09:15:22;;;;;;;7.50;6.80;;;29.60;33.90;;;;;;10464223;28;20220;-76
2022/07/24 09:20:28;;;;;;;7.87;7.30;;;29.80;32.70;;;;;;10474123;28;20578;-76
2022/07/24 09:25:34;;;;;;;7.47;6.97;;;30.00;33.00;;;;;;10467267;28;20228;-76
2022/07/24 09:30:43;;;;;;;7.10;6.53;;;30.20;33.00;;;;;;10469930;28;20223;-76
2022/07/24 09:35:48;;;;;;;7.00;6.50;;;30.30;31.60;;;;;;10461082;28;20251;-76
2022/07/24 09:41:00;;;;;;;7.67;7.03;;;30.50;31.90;;;;;;10452502;28;20232;-71
2022/07/24 09:46:06;;;;;;;6.93;6.43;;;30.70;32.00;;;;;;10456779;28;20277;-72
2022/07/24 09:51:13;;;;;;;6.93;6.43;;;30.80;30.60;;;;;;10452366;28;20228;-72
2022/07/24 09:56:18;;;;;;;7.10;6.60;;;30.80;30.50;;;;;;10457770;28;20224;-76
2022/07/24 10:01:25;;;;;;;7.40;6.80;;;31.00;31.30;;;;;;10461173;28;20239;-72
2022/07/24 10:06:30;;;;;;;7.67;7.17;;;31.10;30.30;;;;;;10461217;28;20232;-72
2022/07/24 10:11:35;;;;;;;7.23;6.53;;;31.30;30.50;;;;;;10458795;28;20230;-72
2022/07/24 10:16:43;;;;;;;7.23;6.67;;;31.40;29.50;;;;;;10457950;28;20797;-72
2022/07/24 10:22:10;;;;;;;7.20;6.70;;;31.60;29.00;;;;;;10454936;28;20239;-72
2022/07/24 10:27:25;;;;;;;7.47;6.97;;;31.70;28.50;;;;;;10471457;28;20232;-76
2022/07/24 10:32:32;;;;;;;6.53;6.13;;;31.80;28.90;;;;;;10473426;28;20250;-76
2022/07/24 10:37:44;;;;;;;7.20;6.53;;;32.00;28.00;;;;;;10469662;28;20224;-76
2022/07/24 10:43:09;;;;;;;7.60;7.03;;;32.00;27.90;;;;;;10468444;28;21092;-76
2022/07/24 10:48:32;;;;;;;7.20;6.70;;;32.10;28.40;;;;;;10465256;28;20218;-76
2022/07/24 10:53:59;;;;;;;7.50;6.80;;;32.20;28.60;;;;;;10473847;28;20240;-76
2022/07/24 10:59:07;;;;;;;6.60;6.10;;;32.40;28.20;;;;;;10450847;28;20653;-76
2022/07/24 11:04:32;;;;;;;8.30;6.50;;;32.50;27.10;;;;;;10477791;28;20877;-77
2022/07/24 11:09:56;;;;;;;6.60;6.10;;;32.50;27.60;;;;;;10476051;28;20220;-77
2022/07/24 11:15:53;;;;;;;7.27;6.77;;;32.60;27.20;;;;;;10463657;28;20726;-72
2022/07/24 11:20:35;;;;;;;7.00;6.50;;;32.70;26.90;;;;;;10459100;28;20221;-72
2022/07/24 11:25:38;;;;;;;7.13;6.60;;;32.90;26.80;;;;;;10459128;28;20240;-72
2022/07/24 11:30:43;;;;;;;7.30;6.60;;;33.10;26.40;;;;;;10461577;28;20821;-72
2022/07/24 11:35:48;;;;;;;7.00;6.53;;;33.10;25.70;;;;;;10457148;28;20233;-73
2022/07/24 11:40:51;;;;;;;7.00;6.50;;;33.10;25.50;;;;;;10458963;28;20216;-72
2022/07/24 11:45:54;;;;;;;6.60;6.10;;;33.20;26.00;;;;;;10460037;28;20231;-72
2022/07/24 11:51:06;;;;;;;6.87;6.30;;;33.20;25.70;;;;;;10473439;28;20225;-72
2022/07/24 11:56:31;;;;;;;6.87;6.27;;;33.20;24.80;;;;;;10469377;28;20232;-72
2022/07/24 12:01:34;;;;;;;6.77;6.27;;;33.30;25.00;;;;;;10474847;28;20315;-73
2022/07/24 12:06:39;;;;;;;7.30;6.80;;;33.40;25.00;;;;;;10460858;28;20239;-72
2022/07/24 12:11:42;;;;;;;6.40;6.00;;;33.40;23.70;;;;;;10466335;28;20228;-72
2022/07/24 12:16:51;;;;;;;6.80;6.30;;;33.40;24.40;;;;;;10452083;28;20231;-73
2022/07/24 12:21:56;;;;;;;6.77;6.27;;;33.40;24.40;;;;;;10468705;28;20735;-73
2022/07/24 12:27:00;;;;;;;6.80;6.33;;;33.50;22.90;;;;;;10465661;28;20235;-72
2022/07/24 12:32:17;;;;;;;6.57;6.17;;;33.40;23.10;;;;;;10465467;28;20592;-73
2022/07/24 12:37:23;;;;;;;6.97;6.37;;;33.30;22.40;;;;;;10469404;28;20321;-73
2022/07/24 12:42:31;;;;;;;6.60;6.10;;;33.30;22.80;;;;;;10469129;28;23146;-73
2022/07/24 12:47:34;;;;;;;6.57;5.97;;;33.40;22.90;;;;;;10468282;28;20228;-72
2022/07/24 12:52:39;;;;;;;6.70;6.20;;;33.40;23.20;;;;;;10469499;28;20224;-73
2022/07/24 12:57:42;;;;;;;6.03;5.63;;;33.50;22.90;;;;;;10462833;28;20232;-72
2022/07/24 13:02:47;;;;;;;6.73;6.23;;;33.60;23.30;;;;;;10459248;28;20230;-72
2022/07/24 13:07:54;;;;;;;6.77;6.27;;;33.70;23.00;;;;;;10458984;28;20229;-72
2022/07/24 13:12:57;;;;;;;7.00;6.50;;;33.80;22.20;;;;;;10457812;28;20229;-72
2022/07/24 13:18:00;;;;;;;6.83;6.33;;;33.90;22.60;;;;;;10456429;28;20232;-72
2022/07/24 13:23:05;;;;;;;7.03;6.53;;;33.90;21.90;;;;;;10475512;28;20339;-76
2022/07/24 13:28:09;;;;;;;6.60;6.20;;;33.80;21.10;;;;;;10466137;28;20591;-76
2022/07/24 13:33:15;;;;;;;6.83;6.33;;;33.70;21.20;;;;;;10471751;28;20221;-76
2022/07/24 13:38:20;;;;;;;6.83;6.30;;;33.60;22.00;;;;;;10474011;28;20225;-78
2022/07/24 13:43:23;;;;;;;6.87;6.27;;;33.70;21.40;;;;;;10463985;28;20229;-78
2022/07/24 13:48:27;;;;;;;6.40;6.00;;;33.80;21.20;;;;;;10469558;28;20239;-78
2022/07/24 13:53:31;;;;;;;6.70;6.10;;;33.80;21.30;;;;;;10474154;28;20236;-78
2022/07/24 13:58:37;;;;;;;6.27;5.67;;;33.90;20.70;;;;;;10474567;28;20225;-78
2022/07/24 14:03:41;;;;;;;6.30;5.90;;;33.90;20.70;;;;;;10476778;28;20719;-78
2022/07/24 14:09:06;;;;;;;6.37;5.97;;;34.00;20.70;;;;;;10467703;28;20731;-78
2022/07/24 14:14:10;;;;;;;6.73;6.13;;;34.00;20.30;;;;;;10477968;28;20240;-79
2022/07/24 14:19:13;;;;;;;6.83;6.33;;;34.10;20.30;;;;;;10472550;28;20226;-73
2022/07/24 14:24:20;;;;;;;6.87;6.37;;;34.10;20.10;;;;;;10458860;28;20220;-73
2022/07/24 14:29:24;;;;;;;6.40;6.00;;;34.10;19.30;;;;;;10465938;28;20221;-73
2022/07/24 14:34:28;;;;;;;6.67;6.17;;;34.00;19.70;;;;;;10458255;28;20236;-70
2022/07/24 14:39:33;;;;;;;6.67;6.17;;;33.90;19.90;;;;;;10456019;28;20225;-70
2022/07/24 14:44:36;;;;;;;6.47;6.07;;;34.00;19.40;;;;;;10451253;28;21057;-70
2022/07/24 14:49:39;;;;;;;6.70;6.20;;;34.00;19.70;;;;;;10463032;28;20586;-71
2022/07/24 14:54:44;;;;;;;6.57;6.17;;;34.00;19.70;;;;;;10459956;28;20236;-76
2022/07/24 14:59:47;;;;;;;6.60;6.17;;;34.10;19.40;;;;;;10460671;28;20222;-76
2022/07/24 15:04:51;;;;;;;7.10;6.60;;;34.20;19.30;;;;;;10456337;28;20233;-70
2022/07/24 15:09:55;;;;;;;6.77;6.27;;;34.20;18.90;;;;;;10458596;28;20343;-72
2022/07/24 15:14:59;;;;;;;6.87;6.37;;;34.30;18.40;;;;;;10450416;28;20232;-71
2022/07/24 15:20:02;;;;;;;6.97;6.47;;;34.20;18.80;;;;;;10461663;28;20221;-76
2022/07/24 15:25:07;;;;;;;7.70;7.00;;;34.20;18.70;;;;;;10462724;28;20233;-76
2022/07/24 15:30:16;;;;;;;6.80;6.33;;;34.10;18.20;;;;;;10462640;28;20233;-77
2022/07/24 15:35:19;;;;;;;6.63;6.23;;;34.10;18.60;;;;;;10462912;28;20224;-76
2022/07/24 15:40:26;;;;;;;7.10;6.60;;;34.10;18.40;;;;;;10463075;28;20234;-77
2022/07/24 15:45:29;;;;;;;6.77;6.27;;;34.10;17.70;;;;;;10459686;28;20231;-76
2022/07/24 15:50:33;;;;;;;7.00;6.47;;;34.00;18.40;;;;;;10458936;28;20303;-77
2022/07/24 15:55:38;;;;;;;6.13;5.73;;;34.10;18.50;;;;;;10456254;28;20228;-73
2022/07/24 16:00:41;;;;;;;5.90;5.50;;;34.10;17.70;;;;;;10453657;28;20680;-73
2022/07/24 16:05:44;;;;;;;6.37;5.97;;;34.10;18.00;;;;;;10449142;28;20239;-73
2022/07/24 16:10:49;;;;;;;6.67;6.17;;;34.00;18.00;;;;;;10450978;28;20671;-73
2022/07/24 16:15:52;;;;;;;6.30;5.90;;;33.90;17.60;;;;;;10448340;28;20582;-71
2022/07/24 16:20:55;;;;;;;6.30;5.90;;;33.90;17.90;;;;;;10457301;28;20863;-70
2022/07/24 16:26:00;;;;;;;6.33;5.93;;;33.90;17.90;;;;;;10458244;28;20232;-71
2022/07/24 16:31:03;;;;;;;6.37;5.97;;;33.90;17.50;;;;;;10455354;28;20224;-71
2022/07/24 16:36:07;;;;;;;6.17;5.77;;;33.90;17.50;;;;;;10460654;28;20250;-71
2022/07/24 16:41:15;;;;;;;6.30;5.90;;;33.90;17.60;;;;;;10466582;28;20246;-71
2022/07/24 16:46:22;;;;;;;5.70;5.30;;;33.90;17.10;;;;;;10467373;28;20243;-70
2022/07/24 16:51:25;;;;;;;6.10;5.60;;;33.90;17.50;;;;;;10465026;28;20232;-71
2022/07/24 16:56:47;;;;;;;5.63;5.23;;;34.00;17.60;;;;;;10463546;28;20239;-71
2022/07/24 17:01:51;;;;;;;6.67;6.13;;;34.10;17.20;;;;;;10464921;28;20232;-70
2022/07/24 17:06:54;;;;;;;5.90;5.50;;;34.10;17.40;;;;;;10453322;28;20246;-71
2022/07/24 17:11:59;;;;;;;6.30;5.90;;;34.10;17.40;;;;;;10458792;28;20227;-71
2022/07/24 17:17:03;;;;;;;6.30;5.80;;;34.10;17.00;;;;;;10462804;28;20257;-71
2022/07/24 17:22:18;;;;;;;5.87;5.37;;;34.10;17.10;;;;;;10461933;28;20250;-71
2022/07/24 17:27:23;;;;;;;6.13;5.73;;;34.10;16.50;;;;;;10458988;28;20239;-72
2022/07/24 17:32:26;;;;;;;6.27;5.87;;;34.20;16.70;;;;;;10460676;28;20229;-73
2022/07/24 17:37:30;;;;;;;6.37;5.87;;;34.20;16.80;;;;;;10464726;28;20235;-73
2022/07/24 17:42:34;;;;;;;5.97;5.57;;;34.20;17.00;;;;;;10458513;28;20239;-73
2022/07/24 17:47:38;;;;;;;6.27;5.77;;;34.10;16.90;;;;;;10466762;28;20748;-75
2022/07/24 17:52:42;;;;;;;6.47;5.90;;;34.20;16.90;;;;;;10473194;28;20617;-75
2022/07/24 17:57:46;;;;;;;6.80;6.30;;;34.20;16.90;;;;;;10472120;28;20659;-76
2022/07/24 18:02:49;;;;;;;6.87;6.37;;;34.20;16.70;;;;;;10472239;28;20230;-76
2022/07/24 18:07:53;;;;;;;6.40;5.90;;;34.20;16.90;;;;;;10471593;28;20229;-75
2022/07/24 18:12:58;;;;;;;6.43;5.97;;;34.20;17.60;;;;;;10467193;28;20227;-75
2022/07/24 18:18:01;;;;;;;6.23;5.83;;;34.10;17.70;;;;;;10476315;28;20308;-76
2022/07/24 18:23:04;;;;;;;5.93;5.63;;;34.10;18.00;;;;;;10471190;28;20224;-75
2022/07/24 18:28:09;;;;;;;6.03;5.63;;;34.00;18.00;;;;;;10477188;28;20240;-76
2022/07/24 18:33:13;;;;;;;6.10;5.70;;;33.90;18.30;;;;;;10457513;28;20224;-72
2022/07/24 18:38:17;;;;;;;6.70;6.20;;;33.70;18.60;;;;;;10449979;28;20237;-73
2022/07/24 18:43:22;;;;;;;6.47;6.07;;;33.70;18.90;;;;;;10436023;28;20370;-73
2022/07/24 18:48:25;;;;;;;6.20;5.80;;;33.50;19.60;;;;;;10442035;28;20243;-73
2022/07/24 18:53:28;;;;;;;6.57;6.17;;;33.40;19.70;;;;;;10418211;28;20361;-73
2022/07/24 18:58:33;;;;;;;6.43;6.03;;;33.30;20.00;;;;;;10436432;28;20220;-72
2022/07/24 19:03:37;;;;;;;6.10;5.70;;;33.20;20.40;;;;;;10437748;28;20224;-73
2022/07/24 19:08:42;;;;;;;6.03;5.63;;;33.10;20.30;;;;;;10433999;28;20248;-73
2022/07/24 19:13:47;;;;;;;6.30;5.90;;;32.90;20.70;;;;;;10434232;28;20225;-73
2022/07/24 19:18:50;;;;;;;6.80;6.20;;;32.70;20.90;;;;;;10431633;28;20229;-73
2022/07/24 19:23:54;;;;;;;6.57;6.07;;;32.60;20.70;;;;;;10437659;28;20235;-73
2022/07/24 19:28:59;;;;;;;6.27;5.77;;;32.40;20.90;;;;;;10433634;28;20913;-73
2022/07/24 19:34:02;;;;;;;6.80;6.20;;;32.20;21.30;;;;;;10437665;28;20225;-73
2022/07/24 19:39:06;;;;;;;6.77;6.20;;;32.00;21.00;;;;;;10436875;28;20734;-72
2022/07/24 19:44:12;;;;;;;8.23;6.10;;;31.90;21.30;;;;;;10431263;28;20391;-72
2022/07/24 19:49:15;;;;;;;6.17;5.77;;;31.80;21.80;;;;;;10433477;28;21070;-72
2022/07/24 19:54:20;;;;;;;6.57;6.17;;;31.60;21.70;;;;;;10432228;28;20224;-72
2022/07/24 19:59:29;;;;;;;7.27;6.77;;;31.40;21.80;;;;;;10430784;28;20231;-72
2022/07/24 20:04:32;;;;;;;6.70;6.27;;;31.30;21.80;;;;;;10431568;28;20224;-72
2022/07/24 20:09:35;;;;;;;7.37;6.77;;;31.00;21.60;;;;;;10444955;28;20217;-73
2022/07/24 20:14:40;;;;;;;7.10;6.50;;;30.80;22.10;;;;;;10447365;28;20236;-72
2022/07/24 20:19:43;;;;;;;7.40;6.80;;;30.50;22.60;;;;;;10446743;28;20828;-72
2022/07/24 20:24:47;;;;;;;7.60;7.03;;;30.40;22.70;;;;;;10449280;28;20358;-72
2022/07/24 20:29:52;;;;;;;7.30;6.73;;;30.30;22.90;;;;;;10454448;28;20232;-73
2022/07/24 20:34:55;;;;;;;7.90;7.30;;;30.20;23.20;;;;;;10456748;28;20255;-73
2022/07/24 20:39:59;;;;;;;8.30;7.53;;;30.00;23.20;;;;;;10459878;28;20726;-72
2022/07/24 20:45:04;;;;;;;8.00;7.20;;;29.80;23.40;;;;;;10461197;28;20216;-72
2022/07/24 20:50:08;;;;;;;7.70;7.10;;;29.70;24.00;;;;;;10460031;28;20242;-73
2022/07/24 20:55:11;;;;;;;8.30;7.70;;;29.60;23.90;;;;;;10456926;28;20232;-72
2022/07/24 21:00:17;;;;;;;7.93;7.33;;;29.50;24.00;;;;;;10456365;28;20724;-73
2022/07/24 21:05:20;;;;;;;8.13;7.53;;;29.40;24.40;;;;;;10457782;28;20972;-72
2022/07/24 21:10:25;;;;;;;7.87;7.37;;;29.30;24.20;;;;;;10455403;28;20889;-73
2022/07/24 21:15:30;;;;;;;7.97;7.40;;;29.30;24.20;;;;;;10452619;28;20768;-72
2022/07/24 21:20:33;;;;;;;7.70;7.20;;;29.20;24.50;;;;;;10455504;28;20212;-73
2022/07/24 21:25:37;;;;;;;8.37;7.57;;;29.00;24.40;;;;;;10457242;28;20233;-72
2022/07/24 21:30:42;;;;;;;8.50;7.50;;;28.90;24.60;;;;;;10456106;28;20224;-73
2022/07/24 21:35:45;;;;;;;7.87;7.37;;;28.70;25.20;;;;;;10453691;28;20267;-72
2022/07/24 21:40:49;;;;;;;8.20;7.60;;;28.50;24.90;;;;;;10451121;28;20224;-73
2022/07/24 21:45:53;;;;;;;8.03;7.33;;;28.40;25.20;;;;;;10456288;28;20228;-73
2022/07/24 21:50:57;;;;;;;7.93;7.33;;;28.30;25.30;;;;;;10456710;28;20238;-72
2022/07/24 21:56:00;;;;;;;7.80;7.20;;;28.20;25.40;;;;;;10451497;28;20642;-72
2022/07/24 22:01:06;;;;;;;7.90;7.30;;;28.10;25.50;;;;;;10456047;28;20224;-73
2022/07/24 22:06:09;;;;;;;8.07;7.47;;;28.00;25.90;;;;;;10456089;28;20649;-72
2022/07/24 22:11:12;;;;;;;8.43;7.73;;;28.00;25.90;;;;;;10457030;28;20610;-73
2022/07/24 22:16:17;;;;;;;8.20;7.70;;;27.90;26.00;;;;;;10453720;28;20232;-73
2022/07/24 22:21:20;;;;;;;8.87;8.23;;;27.80;26.40;;;;;;10452636;28;20224;-72
2022/07/24 22:26:24;;;;;;;8.83;8.23;;;27.70;26.20;;;;;;10453971;28;20232;-73
2022/07/24 22:31:29;;;;;;;8.50;7.83;;;27.60;26.40;;;;;;10449729;28;20232;-73
2022/07/24 22:36:35;;;;;;;8.30;7.60;;;27.40;26.90;;;;;;10448051;28;20220;-73
2022/07/24 22:41:40;;;;;;;7.83;7.13;;;27.20;26.60;;;;;;10454193;28;20224;-72
2022/07/24 22:46:46;;;;;;;8.60;7.90;;;26.90;27.30;;;;;;10451355;28;20235;-73
2022/07/24 22:51:49;;;;;;;8.60;8.00;;;26.80;27.90;;;;;;10453655;28;20266;-73
2022/07/24 22:56:53;;;;;;;8.53;7.93;;;26.70;27.30;;;;;;10454608;28;20224;-73
2022/07/24 23:01:58;;;;;;;9.27;8.47;;;26.60;27.80;;;;;;10451473;28;20708;-72
2022/07/24 23:07:02;;;;;;;8.20;7.60;;;26.50;28.30;;;;;;10451791;28;20221;-72
2022/07/24 23:12:06;;;;;;;9.07;8.37;;;26.30;27.80;;;;;;10449552;28;20224;-73
2022/07/24 23:17:10;;;;;;;8.43;7.83;;;26.20;28.30;;;;;;10451132;28;20228;-73
2022/07/24 23:22:13;;;;;;;8.73;7.83;;;26.10;28.80;;;;;;10452194;28;20227;-73
2022/07/24 23:27:17;;;;;;;8.10;7.50;;;26.00;28.60;;;;;;10445212;28;20595;-72
2022/07/24 23:32:22;;;;;;;7.90;7.37;;;25.90;28.70;;;;;;10452286;28;20220;-73
2022/07/24 23:37:25;;;;;;;9.17;8.47;;;25.80;29.10;;;;;;10449066;28;20659;-72
2022/07/24 23:42:28;;;;;;;7.93;7.23;;;25.70;29.00;;;;;;10448978;28;20810;-73
2022/07/24 23:47:33;;;;;;;8.97;8.07;;;25.60;29.00;;;;;;10449241;28;20236;-72
2022/07/24 23:52:36;;;;;;;8.67;8.03;;;25.50;29.30;;;;;;10450149;28;20228;-73
2022/07/24 23:57:40;;;;;;;8.77;8.10;;;25.40;28.90;;;;;;10450172;28;20267;-73
